sensor_id;sensor_type;location;lat;lon;timestamp;P1;durP1;ratioP1;P2;durP2;ratioP2
24743;SDS011;12844;52.110;5.548;2023-07-13T00:01:46;2.50;;;1.20;;
24743;SDS011;12844;52.110;5.548;2023-07-13T00:04:15;3.75;;;1.42;;
24743;SDS011;12844;52.110;5.548;2023-07-13T00:06:42;4.25;;;1.48;;
24743;SDS011;12844;52.110;5.548;2023-07-13T00:09:09;2.38;;;1.58;;
24743;SDS011;12844;52.110;5.548;2023-07-13T00:11:39;2.08;;;1.38;;
24743;SDS011;12844;52.110;5.548;2023-07-13T00:14:06;3.97;;;1.55;;
24743;SDS011;12844;52.110;5.548;2023-07-13T00:16:36;3.33;;;1.38;;
24743;SDS011;12844;52.110;5.548;2023-07-13T00:19:03;3.72;;;1.30;;
24743;SDS011;12844;52.110;5.548;2023-07-13T00:21:30;2.88;;;1.30;;
24743;SDS011;12844;52.110;5.548;2023-07-13T00:23:56;3.10;;;1.20;;
24743;SDS011;12844;52.110;5.548;2023-07-13T00:26:22;4.57;;;1.60;;
24743;SDS011;12844;52.110;5.548;2023-07-13T00:28:48;2.63;;;1.20;;
24743;SDS011;12844;52.110;5.548;2023-07-13T00:31:13;2.45;;;1.00;;
24743;SDS011;12844;52.110;5.548;2023-07-13T00:33:39;3.78;;;1.55;;
24743;SDS011;12844;52.110;5.548;2023-07-13T00:36:07;3.20;;;1.23;;
24743;SDS011;12844;52.110;5.548;2023-07-13T00:38:33;4.00;;;1.30;;
24743;SDS011;12844;52.110;5.548;2023-07-13T00:40:59;4.95;;;1.30;;
24743;SDS011;12844;52.110;5.548;2023-07-13T00:43:25;2.63;;;1.38;;
24743;SDS011;12844;52.110;5.548;2023-07-13T00:48:27;4.00;;;1.33;;
24743;SDS011;12844;52.110;5.548;2023-07-13T00:50:57;2.28;;;1.15;;
24743;SDS011;12844;52.110;5.548;2023-07-13T00:53:25;2.78;;;1.30;;
24743;SDS011;12844;52.110;5.548;2023-07-13T00:55:53;2.90;;;1.17;;
24743;SDS011;12844;52.110;5.548;2023-07-13T00:58:19;3.53;;;1.20;;
24743;SDS011;12844;52.110;5.548;2023-07-13T01:00:45;2.78;;;1.20;;
24743;SDS011;12844;52.110;5.548;2023-07-13T01:03:13;3.58;;;1.40;;
24743;SDS011;12844;52.110;5.548;2023-07-13T01:05:39;2.55;;;1.30;;
24743;SDS011;12844;52.110;5.548;2023-07-13T01:08:05;3.90;;;1.20;;
24743;SDS011;12844;52.110;5.548;2023-07-13T01:10:31;1.88;;;1.30;;
24743;SDS011;12844;52.110;5.548;2023-07-13T01:15:37;2.90;;;1.30;;
24743;SDS011;12844;52.110;5.548;2023-07-13T01:18:04;2.95;;;1.15;;
24743;SDS011;12844;52.110;5.548;2023-07-13T01:20:41;3.35;;;1.27;;
24743;SDS011;12844;52.110;5.548;2023-07-13T01:23:12;3.08;;;1.15;;
24743;SDS011;12844;52.110;5.548;2023-07-13T01:25:38;2.40;;;1.00;;
24743;SDS011;12844;52.110;5.548;2023-07-13T01:28:05;3.50;;;1.13;;
24743;SDS011;12844;52.110;5.548;2023-07-13T01:30:34;2.75;;;1.10;;
24743;SDS011;12844;52.110;5.548;2023-07-13T01:33:00;2.08;;;1.15;;
24743;SDS011;12844;52.110;5.548;2023-07-13T01:35:26;2.85;;;1.25;;
24743;SDS011;12844;52.110;5.548;2023-07-13T01:37:52;1.95;;;1.23;;
24743;SDS011;12844;52.110;5.548;2023-07-13T01:40:19;2.15;;;1.10;;
24743;SDS011;12844;52.110;5.548;2023-07-13T01:42:45;2.10;;;1.10;;
24743;SDS011;12844;52.110;5.548;2023-07-13T01:45:11;3.58;;;1.13;;
24743;SDS011;12844;52.110;5.548;2023-07-13T01:47:36;3.33;;;1.23;;
24743;SDS011;12844;52.110;5.548;2023-07-13T01:50:02;4.10;;;1.40;;
24743;SDS011;12844;52.110;5.548;2023-07-13T01:52:28;3.22;;;1.25;;
24743;SDS011;12844;52.110;5.548;2023-07-13T01:54:54;2.85;;;1.13;;
24743;SDS011;12844;52.110;5.548;2023-07-13T01:57:20;4.22;;;1.60;;
24743;SDS011;12844;52.110;5.548;2023-07-13T01:59:45;3.60;;;1.25;;
24743;SDS011;12844;52.110;5.548;2023-07-13T02:02:11;2.38;;;1.02;;
24743;SDS011;12844;52.110;5.548;2023-07-13T02:04:37;2.20;;;1.10;;
24743;SDS011;12844;52.110;5.548;2023-07-13T02:07:02;3.42;;;1.60;;
24743;SDS011;12844;52.110;5.548;2023-07-13T02:09:28;5.93;;;1.15;;
24743;SDS011;12844;52.110;5.548;2023-07-13T02:11:54;1.70;;;1.08;;
24743;SDS011;12844;52.110;5.548;2023-07-13T02:14:20;2.75;;;1.20;;
24743;SDS011;12844;52.110;5.548;2023-07-13T02:16:45;2.10;;;1.00;;
24743;SDS011;12844;52.110;5.548;2023-07-13T02:19:11;1.88;;;1.10;;
24743;SDS011;12844;52.110;5.548;2023-07-13T02:21:36;2.08;;;1.00;;
24743;SDS011;12844;52.110;5.548;2023-07-13T02:24:02;2.00;;;1.00;;
24743;SDS011;12844;52.110;5.548;2023-07-13T02:26:28;3.65;;;1.55;;
24743;SDS011;12844;52.110;5.548;2023-07-13T02:28:54;1.85;;;1.23;;
24743;SDS011;12844;52.110;5.548;2023-07-13T02:31:19;2.03;;;1.10;;
24743;SDS011;12844;52.110;5.548;2023-07-13T02:33:45;4.18;;;1.23;;
24743;SDS011;12844;52.110;5.548;2023-07-13T02:36:11;3.20;;;1.10;;
24743;SDS011;12844;52.110;5.548;2023-07-13T02:38:39;1.98;;;1.13;;
24743;SDS011;12844;52.110;5.548;2023-07-13T02:41:05;2.03;;;1.27;;
24743;SDS011;12844;52.110;5.548;2023-07-13T02:43:33;5.22;;;1.70;;
24743;SDS011;12844;52.110;5.548;2023-07-13T02:45:59;2.72;;;1.05;;
24743;SDS011;12844;52.110;5.548;2023-07-13T02:48:31;2.33;;;0.98;;
24743;SDS011;12844;52.110;5.548;2023-07-13T02:50:58;1.85;;;0.93;;
24743;SDS011;12844;52.110;5.548;2023-07-13T02:53:23;1.27;;;1.00;;
24743;SDS011;12844;52.110;5.548;2023-07-13T02:55:49;2.90;;;1.00;;
24743;SDS011;12844;52.110;5.548;2023-07-13T02:58:15;2.28;;;1.20;;
24743;SDS011;12844;52.110;5.548;2023-07-13T03:00:44;2.42;;;1.13;;
24743;SDS011;12844;52.110;5.548;2023-07-13T03:03:11;3.20;;;1.10;;
24743;SDS011;12844;52.110;5.548;2023-07-13T03:05:40;1.90;;;1.20;;
24743;SDS011;12844;52.110;5.548;2023-07-13T03:08:07;1.90;;;1.00;;
24743;SDS011;12844;52.110;5.548;2023-07-13T03:10:34;3.00;;;1.08;;
24743;SDS011;12844;52.110;5.548;2023-07-13T03:13:00;2.33;;;1.05;;
24743;SDS011;12844;52.110;5.548;2023-07-13T03:15:26;2.05;;;1.00;;
24743;SDS011;12844;52.110;5.548;2023-07-13T03:17:52;1.98;;;1.10;;
24743;SDS011;12844;52.110;5.548;2023-07-13T03:20:18;3.80;;;1.08;;
24743;SDS011;12844;52.110;5.548;2023-07-13T03:22:43;2.25;;;1.00;;
24743;SDS011;12844;52.110;5.548;2023-07-13T03:25:10;2.67;;;1.30;;
24743;SDS011;12844;52.110;5.548;2023-07-13T03:27:36;1.58;;;1.02;;
24743;SDS011;12844;52.110;5.548;2023-07-13T03:30:03;1.17;;;0.80;;
24743;SDS011;12844;52.110;5.548;2023-07-13T03:32:29;2.40;;;1.05;;
24743;SDS011;12844;52.110;5.548;2023-07-13T03:34:55;1.98;;;1.02;;
24743;SDS011;12844;52.110;5.548;2023-07-13T03:37:21;2.42;;;1.20;;
24743;SDS011;12844;52.110;5.548;2023-07-13T03:39:46;1.98;;;1.10;;
24743;SDS011;12844;52.110;5.548;2023-07-13T03:42:12;2.55;;;1.25;;
24743;SDS011;12844;52.110;5.548;2023-07-13T03:44:39;1.42;;;1.00;;
24743;SDS011;12844;52.110;5.548;2023-07-13T03:47:05;1.73;;;0.98;;
24743;SDS011;12844;52.110;5.548;2023-07-13T03:49:31;1.88;;;1.10;;
24743;SDS011;12844;52.110;5.548;2023-07-13T03:51:57;1.42;;;0.93;;
24743;SDS011;12844;52.110;5.548;2023-07-13T03:54:22;2.45;;;1.20;;
24743;SDS011;12844;52.110;5.548;2023-07-13T03:56:48;1.60;;;0.98;;
24743;SDS011;12844;52.110;5.548;2023-07-13T03:59:14;2.38;;;1.20;;
24743;SDS011;12844;52.110;5.548;2023-07-13T04:01:39;1.55;;;1.10;;
24743;SDS011;12844;52.110;5.548;2023-07-13T04:04:05;1.48;;;1.00;;
24743;SDS011;12844;52.110;5.548;2023-07-13T04:06:31;2.03;;;1.10;;
24743;SDS011;12844;52.110;5.548;2023-07-13T04:08:58;3.00;;;1.35;;
24743;SDS011;12844;52.110;5.548;2023-07-13T04:11:27;2.97;;;1.08;;
24743;SDS011;12844;52.110;5.548;2023-07-13T04:13:54;1.88;;;1.10;;
24743;SDS011;12844;52.110;5.548;2023-07-13T04:16:20;2.03;;;1.00;;
24743;SDS011;12844;52.110;5.548;2023-07-13T04:18:47;1.85;;;1.08;;
24743;SDS011;12844;52.110;5.548;2023-07-13T04:21:14;1.67;;;1.08;;
24743;SDS011;12844;52.110;5.548;2023-07-13T04:23:40;1.98;;;1.13;;
24743;SDS011;12844;52.110;5.548;2023-07-13T04:26:06;1.30;;;1.10;;
24743;SDS011;12844;52.110;5.548;2023-07-13T04:28:32;2.03;;;1.25;;
24743;SDS011;12844;52.110;5.548;2023-07-13T04:30:58;1.95;;;1.10;;
24743;SDS011;12844;52.110;5.548;2023-07-13T04:33:24;1.73;;;1.05;;
24743;SDS011;12844;52.110;5.548;2023-07-13T04:35:50;2.22;;;1.20;;
24743;SDS011;12844;52.110;5.548;2023-07-13T04:38:19;2.67;;;1.35;;
24743;SDS011;12844;52.110;5.548;2023-07-13T04:40:45;1.58;;;1.10;;
24743;SDS011;12844;52.110;5.548;2023-07-13T04:43:12;2.67;;;1.42;;
24743;SDS011;12844;52.110;5.548;2023-07-13T04:45:37;2.15;;;1.08;;
24743;SDS011;12844;52.110;5.548;2023-07-13T04:48:03;3.10;;;1.40;;
24743;SDS011;12844;52.110;5.548;2023-07-13T04:50:29;1.67;;;1.10;;
24743;SDS011;12844;52.110;5.548;2023-07-13T04:52:55;1.95;;;1.02;;
24743;SDS011;12844;52.110;5.548;2023-07-13T04:55:20;1.95;;;1.13;;
24743;SDS011;12844;52.110;5.548;2023-07-13T04:57:46;2.08;;;1.10;;
24743;SDS011;12844;52.110;5.548;2023-07-13T05:00:12;2.40;;;1.08;;
24743;SDS011;12844;52.110;5.548;2023-07-13T05:02:40;3.72;;;1.25;;
24743;SDS011;12844;52.110;5.548;2023-07-13T05:05:08;2.13;;;1.02;;
24743;SDS011;12844;52.110;5.548;2023-07-13T05:07:34;2.55;;;1.30;;
24743;SDS011;12844;52.110;5.548;2023-07-13T05:09:59;2.38;;;1.30;;
24743;SDS011;12844;52.110;5.548;2023-07-13T05:12:26;1.90;;;1.08;;
24743;SDS011;12844;52.110;5.548;2023-07-13T05:14:52;2.63;;;1.17;;
24743;SDS011;12844;52.110;5.548;2023-07-13T05:17:17;2.35;;;1.10;;
24743;SDS011;12844;52.110;5.548;2023-07-13T05:19:43;2.78;;;1.30;;
24743;SDS011;12844;52.110;5.548;2023-07-13T05:22:09;2.80;;;1.17;;
24743;SDS011;12844;52.110;5.548;2023-07-13T05:24:35;2.80;;;1.50;;
24743;SDS011;12844;52.110;5.548;2023-07-13T05:27:01;1.77;;;1.13;;
24743;SDS011;12844;52.110;5.548;2023-07-13T05:29:26;2.78;;;1.13;;
24743;SDS011;12844;52.110;5.548;2023-07-13T05:31:52;2.42;;;1.00;;
24743;SDS011;12844;52.110;5.548;2023-07-13T05:34:18;2.35;;;1.40;;
24743;SDS011;12844;52.110;5.548;2023-07-13T05:36:44;2.45;;;1.02;;
24743;SDS011;12844;52.110;5.548;2023-07-13T05:39:09;2.00;;;1.10;;
24743;SDS011;12844;52.110;5.548;2023-07-13T05:41:36;4.15;;;1.70;;
24743;SDS011;12844;52.110;5.548;2023-07-13T05:44:02;2.97;;;1.40;;
24743;SDS011;12844;52.110;5.548;2023-07-13T05:46:28;2.42;;;1.35;;
24743;SDS011;12844;52.110;5.548;2023-07-13T05:48:54;2.28;;;1.27;;
24743;SDS011;12844;52.110;5.548;2023-07-13T05:51:20;2.25;;;1.10;;
24743;SDS011;12844;52.110;5.548;2023-07-13T05:53:46;2.95;;;1.30;;
24743;SDS011;12844;52.110;5.548;2023-07-13T05:56:12;4.65;;;1.08;;
24743;SDS011;12844;52.110;5.548;2023-07-13T05:58:37;3.13;;;1.40;;
24743;SDS011;12844;52.110;5.548;2023-07-13T06:01:04;3.50;;;1.58;;
24743;SDS011;12844;52.110;5.548;2023-07-13T06:03:34;3.88;;;2.03;;
24743;SDS011;12844;52.110;5.548;2023-07-13T06:05:59;2.42;;;1.40;;
24743;SDS011;12844;52.110;5.548;2023-07-13T06:08:26;3.88;;;1.60;;
24743;SDS011;12844;52.110;5.548;2023-07-13T06:10:52;3.25;;;1.65;;
24743;SDS011;12844;52.110;5.548;2023-07-13T06:13:18;3.85;;;1.70;;
24743;SDS011;12844;52.110;5.548;2023-07-13T06:15:48;4.40;;;1.98;;
24743;SDS011;12844;52.110;5.548;2023-07-13T06:18:14;4.53;;;1.98;;
24743;SDS011;12844;52.110;5.548;2023-07-13T06:20:40;3.28;;;1.60;;
24743;SDS011;12844;52.110;5.548;2023-07-13T06:23:06;4.75;;;1.60;;
24743;SDS011;12844;52.110;5.548;2023-07-13T06:25:31;3.40;;;1.92;;
24743;SDS011;12844;52.110;5.548;2023-07-13T06:27:57;4.10;;;1.80;;
24743;SDS011;12844;52.110;5.548;2023-07-13T06:30:23;4.38;;;1.67;;
24743;SDS011;12844;52.110;5.548;2023-07-13T06:32:48;2.63;;;1.60;;
24743;SDS011;12844;52.110;5.548;2023-07-13T06:35:14;9.73;;;2.42;;
24743;SDS011;12844;52.110;5.548;2023-07-13T06:37:40;5.05;;;2.13;;
24743;SDS011;12844;52.110;5.548;2023-07-13T06:40:06;4.72;;;2.08;;
24743;SDS011;12844;52.110;5.548;2023-07-13T06:42:32;5.50;;;2.00;;
24743;SDS011;12844;52.110;5.548;2023-07-13T06:44:58;5.40;;;2.13;;
24743;SDS011;12844;52.110;5.548;2023-07-13T06:47:23;5.00;;;2.13;;
24743;SDS011;12844;52.110;5.548;2023-07-13T06:49:49;7.95;;;2.45;;
24743;SDS011;12844;52.110;5.548;2023-07-13T06:52:15;4.57;;;2.70;;
24743;SDS011;12844;52.110;5.548;2023-07-13T06:54:40;6.93;;;2.10;;
24743;SDS011;12844;52.110;5.548;2023-07-13T06:57:06;6.45;;;2.20;;
24743;SDS011;12844;52.110;5.548;2023-07-13T06:59:32;5.13;;;2.22;;
24743;SDS011;12844;52.110;5.548;2023-07-13T07:01:58;4.45;;;2.05;;
24743;SDS011;12844;52.110;5.548;2023-07-13T07:04:23;4.20;;;2.70;;
24743;SDS011;12844;52.110;5.548;2023-07-13T07:06:49;5.97;;;2.70;;
24743;SDS011;12844;52.110;5.548;2023-07-13T07:09:15;6.28;;;2.65;;
24743;SDS011;12844;52.110;5.548;2023-07-13T07:11:41;5.35;;;2.55;;
24743;SDS011;12844;52.110;5.548;2023-07-13T07:14:07;4.95;;;2.20;;
24743;SDS011;12844;52.110;5.548;2023-07-13T07:16:33;5.25;;;2.30;;
24743;SDS011;12844;52.110;5.548;2023-07-13T07:18:59;5.10;;;2.92;;
24743;SDS011;12844;52.110;5.548;2023-07-13T07:21:24;7.88;;;2.67;;
24743;SDS011;12844;52.110;5.548;2023-07-13T07:23:51;7.63;;;2.67;;
24743;SDS011;12844;52.110;5.548;2023-07-13T07:26:17;7.22;;;2.75;;
24743;SDS011;12844;52.110;5.548;2023-07-13T07:28:43;9.93;;;2.67;;
24743;SDS011;12844;52.110;5.548;2023-07-13T07:31:09;6.20;;;2.70;;
24743;SDS011;12844;52.110;5.548;2023-07-13T07:33:35;8.60;;;4.03;;
24743;SDS011;12844;52.110;5.548;2023-07-13T07:36:00;8.77;;;4.10;;
24743;SDS011;12844;52.110;5.548;2023-07-13T07:38:26;7.28;;;3.60;;
24743;SDS011;12844;52.110;5.548;2023-07-13T07:40:53;5.70;;;3.28;;
24743;SDS011;12844;52.110;5.548;2023-07-13T07:43:19;8.30;;;2.97;;
24743;SDS011;12844;52.110;5.548;2023-07-13T07:45:45;8.68;;;3.20;;
24743;SDS011;12844;52.110;5.548;2023-07-13T07:48:11;5.05;;;3.15;;
24743;SDS011;12844;52.110;5.548;2023-07-13T07:50:37;7.60;;;4.10;;
24743;SDS011;12844;52.110;5.548;2023-07-13T07:53:04;9.00;;;4.50;;
24743;SDS011;12844;52.110;5.548;2023-07-13T07:55:32;10.32;;;4.57;;
24743;SDS011;12844;52.110;5.548;2023-07-13T07:58:00;9.73;;;5.18;;
24743;SDS011;12844;52.110;5.548;2023-07-13T08:00:25;10.38;;;5.50;;
24743;SDS011;12844;52.110;5.548;2023-07-13T08:02:52;9.63;;;6.43;;
24743;SDS011;12844;52.110;5.548;2023-07-13T08:05:17;9.52;;;5.75;;
24743;SDS011;12844;52.110;5.548;2023-07-13T08:07:43;9.48;;;6.10;;
24743;SDS011;12844;52.110;5.548;2023-07-13T08:10:09;11.98;;;5.80;;
24743;SDS011;12844;52.110;5.548;2023-07-13T08:12:35;8.70;;;5.93;;
24743;SDS011;12844;52.110;5.548;2023-07-13T08:15:02;9.15;;;6.10;;
24743;SDS011;12844;52.110;5.548;2023-07-13T08:17:29;8.27;;;6.45;;
24743;SDS011;12844;52.110;5.548;2023-07-13T08:19:54;11.85;;;7.70;;
24743;SDS011;12844;52.110;5.548;2023-07-13T08:22:20;9.15;;;6.45;;
24743;SDS011;12844;52.110;5.548;2023-07-13T08:24:46;10.27;;;6.93;;
24743;SDS011;12844;52.110;5.548;2023-07-13T08:27:12;14.27;;;7.43;;
24743;SDS011;12844;52.110;5.548;2023-07-13T08:29:38;11.07;;;7.30;;
24743;SDS011;12844;52.110;5.548;2023-07-13T08:32:05;9.68;;;7.32;;
24743;SDS011;12844;52.110;5.548;2023-07-13T08:34:34;11.27;;;8.35;;
24743;SDS011;12844;52.110;5.548;2023-07-13T08:37:01;12.60;;;8.27;;
24743;SDS011;12844;52.110;5.548;2023-07-13T08:39:28;10.50;;;7.47;;
24743;SDS011;12844;52.110;5.548;2023-07-13T08:41:56;12.75;;;7.60;;
24743;SDS011;12844;52.110;5.548;2023-07-13T08:47:22;12.35;;;8.20;;
24743;SDS011;12844;52.110;5.548;2023-07-13T08:49:49;10.63;;;7.70;;
24743;SDS011;12844;52.110;5.548;2023-07-13T08:52:17;11.95;;;7.63;;
24743;SDS011;12844;52.110;5.548;2023-07-13T08:54:55;12.35;;;7.60;;
24743;SDS011;12844;52.110;5.548;2023-07-13T08:57:25;11.43;;;7.68;;
24743;SDS011;12844;52.110;5.548;2023-07-13T08:59:59;11.55;;;7.15;;
24743;SDS011;12844;52.110;5.548;2023-07-13T09:03:07;11.85;;;7.60;;
24743;SDS011;12844;52.110;5.548;2023-07-13T09:05:29;11.52;;;6.63;;
24743;SDS011;12844;52.110;5.548;2023-07-13T09:08:06;8.85;;;5.93;;
24743;SDS011;12844;52.110;5.548;2023-07-13T09:11:01;7.10;;;5.25;;
24743;SDS011;12844;52.110;5.548;2023-07-13T09:16:20;8.70;;;5.00;;
24743;SDS011;12844;52.110;5.548;2023-07-13T09:18:47;8.00;;;5.03;;
24743;SDS011;12844;52.110;5.548;2023-07-13T09:21:27;7.60;;;4.80;;
24743;SDS011;12844;52.110;5.548;2023-07-13T09:23:59;7.80;;;4.60;;
24743;SDS011;12844;52.110;5.548;2023-07-13T09:26:45;8.77;;;4.57;;
24743;SDS011;12844;52.110;5.548;2023-07-13T09:29:11;5.47;;;4.43;;
24743;SDS011;12844;52.110;5.548;2023-07-13T09:31:44;6.63;;;4.22;;
24743;SDS011;12844;52.110;5.548;2023-07-13T09:34:14;5.97;;;3.90;;
24743;SDS011;12844;52.110;5.548;2023-07-13T09:36:40;7.35;;;4.38;;
24743;SDS011;12844;52.110;5.548;2023-07-13T09:39:20;7.55;;;4.07;;
24743;SDS011;12844;52.110;5.548;2023-07-13T09:44:50;7.13;;;4.07;;
24743;SDS011;12844;52.110;5.548;2023-07-13T09:47:25;7.85;;;4.05;;
24743;SDS011;12844;52.110;5.548;2023-07-13T09:50:04;5.97;;;4.00;;
24743;SDS011;12844;52.110;5.548;2023-07-13T09:52:40;6.28;;;4.20;;
24743;SDS011;12844;52.110;5.548;2023-07-13T09:55:13;5.50;;;3.67;;
24743;SDS011;12844;52.110;5.548;2023-07-13T09:57:54;6.35;;;4.13;;
24743;SDS011;12844;52.110;5.548;2023-07-13T10:00:21;7.90;;;3.95;;
24743;SDS011;12844;52.110;5.548;2023-07-13T10:02:57;8.07;;;3.72;;
24743;SDS011;12844;52.110;5.548;2023-07-13T10:05:24;5.82;;;4.25;;
24743;SDS011;12844;52.110;5.548;2023-07-13T10:07:50;6.28;;;3.83;;
24743;SDS011;12844;52.110;5.548;2023-07-13T10:10:18;5.50;;;3.97;;
24743;SDS011;12844;52.110;5.548;2023-07-13T10:12:47;5.97;;;3.72;;
24743;SDS011;12844;52.110;5.548;2023-07-13T10:15:15;9.02;;;4.30;;
24743;SDS011;12844;52.110;5.548;2023-07-13T10:17:46;7.07;;;4.03;;
24743;SDS011;12844;52.110;5.548;2023-07-13T10:20:12;7.53;;;4.18;;
24743;SDS011;12844;52.110;5.548;2023-07-13T10:22:44;6.97;;;4.05;;
24743;SDS011;12844;52.110;5.548;2023-07-13T10:25:31;7.97;;;4.90;;
24743;SDS011;12844;52.110;5.548;2023-07-13T10:28:11;6.63;;;4.00;;
24743;SDS011;12844;52.110;5.548;2023-07-13T10:30:41;6.50;;;3.97;;
24743;SDS011;12844;52.110;5.548;2023-07-13T10:33:12;6.25;;;4.10;;
24743;SDS011;12844;52.110;5.548;2023-07-13T10:35:40;6.32;;;3.80;;
24743;SDS011;12844;52.110;5.548;2023-07-13T10:38:27;5.80;;;4.00;;
24743;SDS011;12844;52.110;5.548;2023-07-13T10:41:04;7.25;;;3.75;;
24743;SDS011;12844;52.110;5.548;2023-07-13T10:43:33;6.78;;;4.13;;
24743;SDS011;12844;52.110;5.548;2023-07-13T10:46:04;6.43;;;4.45;;
24743;SDS011;12844;52.110;5.548;2023-07-13T10:48:31;5.43;;;3.92;;
24743;SDS011;12844;52.110;5.548;2023-07-13T10:51:01;6.55;;;3.90;;
24743;SDS011;12844;52.110;5.548;2023-07-13T10:53:31;5.93;;;3.88;;
24743;SDS011;12844;52.110;5.548;2023-07-13T11:02:34;5.35;;;3.83;;
24743;SDS011;12844;52.110;5.548;2023-07-13T11:04:41;5.63;;;3.72;;
24743;SDS011;12844;52.110;5.548;2023-07-13T11:07:11;5.55;;;3.80;;
24743;SDS011;12844;52.110;5.548;2023-07-13T11:09:49;5.50;;;4.10;;
24743;SDS011;12844;52.110;5.548;2023-07-13T11:22:46;5.60;;;3.60;;
24743;SDS011;12844;52.110;5.548;2023-07-13T11:25:33;5.38;;;3.80;;
24743;SDS011;12844;52.110;5.548;2023-07-13T11:30:41;6.07;;;3.88;;
24743;SDS011;12844;52.110;5.548;2023-07-13T11:35:53;5.35;;;4.00;;
24743;SDS011;12844;52.110;5.548;2023-07-13T11:38:33;4.75;;;3.30;;
24743;SDS011;12844;52.110;5.548;2023-07-13T11:41:17;5.05;;;3.95;;
24743;SDS011;12844;52.110;5.548;2023-07-13T11:43:49;5.55;;;3.58;;
24743;SDS011;12844;52.110;5.548;2023-07-13T11:46:20;6.25;;;3.75;;
24743;SDS011;12844;52.110;5.548;2023-07-13T11:48:46;4.07;;;3.40;;
24743;SDS011;12844;52.110;5.548;2023-07-13T11:51:35;4.43;;;3.42;;
24743;SDS011;12844;52.110;5.548;2023-07-13T11:54:04;4.32;;;3.60;;
24743;SDS011;12844;52.110;5.548;2023-07-13T11:57:12;5.22;;;3.20;;
24743;SDS011;12844;52.110;5.548;2023-07-13T11:59:42;5.35;;;3.47;;
24743;SDS011;12844;52.110;5.548;2023-07-13T12:02:13;5.60;;;3.55;;
24743;SDS011;12844;52.110;5.548;2023-07-13T12:04:50;4.70;;;3.42;;
24743;SDS011;12844;52.110;5.548;2023-07-13T12:07:18;4.88;;;3.55;;
24743;SDS011;12844;52.110;5.548;2023-07-13T12:09:44;4.55;;;3.10;;
24743;SDS011;12844;52.110;5.548;2023-07-13T12:12:14;4.38;;;3.63;;
24743;SDS011;12844;52.110;5.548;2023-07-13T12:14:43;4.03;;;3.30;;
24743;SDS011;12844;52.110;5.548;2023-07-13T12:17:16;3.75;;;3.20;;
24743;SDS011;12844;52.110;5.548;2023-07-13T12:19:47;4.35;;;3.35;;
24743;SDS011;12844;52.110;5.548;2023-07-13T12:22:14;3.45;;;3.13;;
24743;SDS011;12844;52.110;5.548;2023-07-13T12:24:41;4.30;;;3.30;;
24743;SDS011;12844;52.110;5.548;2023-07-13T12:27:22;5.15;;;3.20;;
24743;SDS011;12844;52.110;5.548;2023-07-13T12:30:01;4.40;;;3.45;;
24743;SDS011;12844;52.110;5.548;2023-07-13T12:32:30;3.67;;;3.33;;
24743;SDS011;12844;52.110;5.548;2023-07-13T12:35:12;3.72;;;3.33;;
24743;SDS011;12844;52.110;5.548;2023-07-13T12:37:43;3.97;;;3.20;;
24743;SDS011;12844;52.110;5.548;2023-07-13T12:40:18;4.90;;;3.33;;
24743;SDS011;12844;52.110;5.548;2023-07-13T12:42:47;4.95;;;3.20;;
24743;SDS011;12844;52.110;5.548;2023-07-13T12:45:21;4.43;;;3.38;;
24743;SDS011;12844;52.110;5.548;2023-07-13T12:47:54;3.65;;;3.13;;
24743;SDS011;12844;52.110;5.548;2023-07-13T12:50:27;3.50;;;3.20;;
24743;SDS011;12844;52.110;5.548;2023-07-13T12:53:06;4.25;;;3.50;;
24743;SDS011;12844;52.110;5.548;2023-07-13T12:55:45;3.65;;;2.95;;
24743;SDS011;12844;52.110;5.548;2023-07-13T13:00:53;3.90;;;3.50;;
24743;SDS011;12844;52.110;5.548;2023-07-13T13:05:47;3.83;;;2.92;;
24743;SDS011;12844;52.110;5.548;2023-07-13T13:08:13;3.10;;;2.80;;
24743;SDS011;12844;52.110;5.548;2023-07-13T13:10:39;3.42;;;2.63;;
24743;SDS011;12844;52.110;5.548;2023-07-13T13:13:04;3.28;;;2.97;;
24743;SDS011;12844;52.110;5.548;2023-07-13T13:15:30;2.95;;;2.50;;
24743;SDS011;12844;52.110;5.548;2023-07-13T13:17:56;3.55;;;2.78;;
24743;SDS011;12844;52.110;5.548;2023-07-13T13:20:23;3.53;;;2.78;;
24743;SDS011;12844;52.110;5.548;2023-07-13T13:22:50;3.30;;;2.88;;
24743;SDS011;12844;52.110;5.548;2023-07-13T13:25:16;3.42;;;2.55;;
24743;SDS011;12844;52.110;5.548;2023-07-13T13:27:43;2.75;;;2.50;;
24743;SDS011;12844;52.110;5.548;2023-07-13T13:32:37;3.22;;;2.47;;
24743;SDS011;12844;52.110;5.548;2023-07-13T13:35:17;4.97;;;2.50;;
24743;SDS011;12844;52.110;5.548;2023-07-13T13:37:45;3.70;;;2.45;;
24743;SDS011;12844;52.110;5.548;2023-07-13T13:40:15;3.92;;;2.78;;
24743;SDS011;12844;52.110;5.548;2023-07-13T13:42:42;6.03;;;2.38;;
24743;SDS011;12844;52.110;5.548;2023-07-13T13:45:11;3.17;;;2.72;;
24743;SDS011;12844;52.110;5.548;2023-07-13T13:47:37;2.72;;;2.35;;
24743;SDS011;12844;52.110;5.548;2023-07-13T13:50:11;4.07;;;2.60;;
24743;SDS011;12844;52.110;5.548;2023-07-13T13:52:50;4.50;;;2.40;;
24743;SDS011;12844;52.110;5.548;2023-07-13T13:55:18;3.88;;;2.78;;
24743;SDS011;12844;52.110;5.548;2023-07-13T13:57:45;2.60;;;2.40;;
24743;SDS011;12844;52.110;5.548;2023-07-13T14:00:11;2.75;;;2.47;;
24743;SDS011;12844;52.110;5.548;2023-07-13T14:02:39;3.80;;;2.92;;
24743;SDS011;12844;52.110;5.548;2023-07-13T14:05:11;4.20;;;2.70;;
24743;SDS011;12844;52.110;5.548;2023-07-13T14:07:38;4.38;;;2.45;;
24743;SDS011;12844;52.110;5.548;2023-07-13T14:10:15;5.65;;;2.75;;
24743;SDS011;12844;52.110;5.548;2023-07-13T14:12:43;3.33;;;2.75;;
24743;SDS011;12844;52.110;5.548;2023-07-13T14:15:17;3.15;;;2.42;;
24743;SDS011;12844;52.110;5.548;2023-07-13T14:17:46;3.85;;;2.60;;
24743;SDS011;12844;52.110;5.548;2023-07-13T14:20:15;3.47;;;2.78;;
24743;SDS011;12844;52.110;5.548;2023-07-13T14:22:41;4.10;;;2.70;;
24743;SDS011;12844;52.110;5.548;2023-07-13T14:25:11;3.80;;;2.50;;
24743;SDS011;12844;52.110;5.548;2023-07-13T14:27:37;4.05;;;2.90;;
24743;SDS011;12844;52.110;5.548;2023-07-13T14:30:14;3.42;;;2.65;;
24743;SDS011;12844;52.110;5.548;2023-07-13T14:32:40;3.33;;;2.58;;
24743;SDS011;12844;52.110;5.548;2023-07-13T14:35:07;3.17;;;2.42;;
24743;SDS011;12844;52.110;5.548;2023-07-13T14:37:38;3.33;;;2.80;;
24743;SDS011;12844;52.110;5.548;2023-07-13T14:40:15;3.65;;;2.47;;
24743;SDS011;12844;52.110;5.548;2023-07-13T14:42:43;3.20;;;2.67;;
24743;SDS011;12844;52.110;5.548;2023-07-13T14:45:12;3.83;;;2.70;;
24743;SDS011;12844;52.110;5.548;2023-07-13T14:47:42;3.20;;;2.70;;
24743;SDS011;12844;52.110;5.548;2023-07-13T14:50:19;2.85;;;2.55;;
24743;SDS011;12844;52.110;5.548;2023-07-13T14:52:46;3.55;;;2.83;;
24743;SDS011;12844;52.110;5.548;2023-07-13T14:55:14;4.60;;;2.80;;
24743;SDS011;12844;52.110;5.548;2023-07-13T14:57:41;2.95;;;2.53;;
24743;SDS011;12844;52.110;5.548;2023-07-13T15:00:12;3.65;;;2.47;;
24743;SDS011;12844;52.110;5.548;2023-07-13T15:02:43;3.38;;;2.75;;
24743;SDS011;12844;52.110;5.548;2023-07-13T15:05:17;3.85;;;2.78;;
24743;SDS011;12844;52.110;5.548;2023-07-13T15:07:45;3.10;;;2.70;;
24743;SDS011;12844;52.110;5.548;2023-07-13T15:10:15;3.25;;;2.60;;
24743;SDS011;12844;52.110;5.548;2023-07-13T15:12:43;3.92;;;2.53;;
24743;SDS011;12844;52.110;5.548;2023-07-13T15:15:09;4.80;;;2.78;;
24743;SDS011;12844;52.110;5.548;2023-07-13T15:17:36;3.28;;;2.35;;
24743;SDS011;12844;52.110;5.548;2023-07-13T15:20:45;3.53;;;2.60;;
24743;SDS011;12844;52.110;5.548;2023-07-13T15:22:58;3.60;;;2.58;;
24743;SDS011;12844;52.110;5.548;2023-07-13T15:25:25;3.55;;;2.50;;
24743;SDS011;12844;52.110;5.548;2023-07-13T15:27:52;3.97;;;2.50;;
24743;SDS011;12844;52.110;5.548;2023-07-13T15:30:19;3.75;;;2.58;;
24743;SDS011;12844;52.110;5.548;2023-07-13T15:32:45;5.10;;;2.97;;
24743;SDS011;12844;52.110;5.548;2023-07-13T15:35:15;3.97;;;2.60;;
24743;SDS011;12844;52.110;5.548;2023-07-13T15:37:51;3.78;;;2.88;;
24743;SDS011;12844;52.110;5.548;2023-07-13T15:40:17;4.65;;;2.50;;